sensor_id;sensor_type;location;lat;lon;timestamp;temperature;humidity
15700;DHT22;7950;42.744;23.174;2023-08-01T00:00:27;18.60;99.90
15700;DHT22;7950;42.744;23.174;2023-08-01T00:02:56;18.70;99.90
15700;DHT22;7950;42.744;23.174;2023-08-01T00:05:26;18.70;99.90
15700;DHT22;7950;42.744;23.174;2023-08-01T00:07:55;18.70;99.90
15700;DHT22;7950;42.744;23.174;2023-08-01T00:10:24;18.70;99.90
15700;DHT22;7950;42.744;23.174;2023-08-01T00:12:52;18.70;99.90
15700;DHT22;7950;42.744;23.174;2023-08-01T00:15:21;18.60;99.90
15700;DHT22;7950;42.744;23.174;2023-08-01T00:17:49;18.60;99.90
15700;DHT22;7950;42.744;23.174;2023-08-01T00:20:18;18.60;99.90
15700;DHT22;7950;42.744;23.174;2023-08-01T00:22:48;18.60;99.90
15700;DHT22;7950;42.744;23.174;2023-08-01T00:25:17;18.60;99.90
15700;DHT22;7950;42.744;23.174;2023-08-01T00:27:46;18.60;99.90
15700;DHT22;7950;42.744;23.174;2023-08-01T00:30:15;18.60;99.90
15700;DHT22;7950;42.744;23.174;2023-08-01T00:32:43;18.60;99.90
15700;DHT22;7950;42.744;23.174;2023-08-01T00:35:12;18.60;99.90
15700;DHT22;7950;42.744;23.174;2023-08-01T00:37:40;18.50;99.90
15700;DHT22;7950;42.744;23.174;2023-08-01T00:40:11;18.40;99.90
15700;DHT22;7950;42.744;23.174;2023-08-01T00:42:39;18.40;99.90
15700;DHT22;7950;42.744;23.174;2023-08-01T00:45:09;18.40;99.90
15700;DHT22;7950;42.744;23.174;2023-08-01T00:47:38;18.40;99.90
15700;DHT22;7950;42.744;23.174;2023-08-01T00:50:08;18.40;99.90
15700;DHT22;7950;42.744;23.174;2023-08-01T00:52:37;18.30;99.90
15700;DHT22;7950;42.744;23.174;2023-08-01T00:55:07;18.30;99.90
15700;DHT22;7950;42.744;23.174;2023-08-01T00:57:37;18.30;99.90
15700;DHT22;7950;42.744;23.174;2023-08-01T01:00:07;18.30;99.90
15700;DHT22;7950;42.744;23.174;2023-08-01T01:02:36;18.40;99.90
15700;DHT22;7950;42.744;23.174;2023-08-01T01:05:06;18.30;99.90
15700;DHT22;7950;42.744;23.174;2023-08-01T01:07:37;18.30;99.90
15700;DHT22;7950;42.744;23.174;2023-08-01T01:10:07;18.30;99.90
15700;DHT22;7950;42.744;23.174;2023-08-01T01:12:37;18.20;99.90
15700;DHT22;7950;42.744;23.174;2023-08-01T01:15:06;18.10;99.90
15700;DHT22;7950;42.744;23.174;2023-08-01T01:17:35;18.00;99.90
15700;DHT22;7950;42.744;23.174;2023-08-01T01:20:05;18.00;99.90
15700;DHT22;7950;42.744;23.174;2023-08-01T01:22:36;17.80;99.90
15700;DHT22;7950;42.744;23.174;2023-08-01T01:25:09;17.80;99.90
15700;DHT22;7950;42.744;23.174;2023-08-01T01:27:39;17.70;99.90
15700;DHT22;7950;42.744;23.174;2023-08-01T01:30:08;17.60;99.90
15700;DHT22;7950;42.744;23.174;2023-08-01T01:32:37;17.60;99.90
15700;DHT22;7950;42.744;23.174;2023-08-01T01:35:07;17.60;99.90
15700;DHT22;7950;42.744;23.174;2023-08-01T01:37:37;17.50;99.90
15700;DHT22;7950;42.744;23.174;2023-08-01T01:40:07;17.50;99.90
15700;DHT22;7950;42.744;23.174;2023-08-01T01:42:36;17.60;99.90
15700;DHT22;7950;42.744;23.174;2023-08-01T01:45:05;17.60;99.90
15700;DHT22;7950;42.744;23.174;2023-08-01T01:47:34;17.50;99.90
15700;DHT22;7950;42.744;23.174;2023-08-01T01:50:03;17.40;99.90
15700;DHT22;7950;42.744;23.174;2023-08-01T01:52:36;17.30;99.90
15700;DHT22;7950;42.744;23.174;2023-08-01T01:55:05;17.40;99.90
15700;DHT22;7950;42.744;23.174;2023-08-01T01:57:34;17.50;99.90
15700;DHT22;7950;42.744;23.174;2023-08-01T02:00:04;17.50;99.90
15700;DHT22;7950;42.744;23.174;2023-08-01T02:02:37;17.50;99.90
15700;DHT22;7950;42.744;23.174;2023-08-01T02:05:06;17.50;99.90
15700;DHT22;7950;42.744;23.174;2023-08-01T02:07:35;17.40;99.90
15700;DHT22;7950;42.744;23.174;2023-08-01T02:10:05;17.40;99.90
15700;DHT22;7950;42.744;23.174;2023-08-01T02:12:35;17.40;99.90
15700;DHT22;7950;42.744;23.174;2023-08-01T02:15:04;17.40;99.90
15700;DHT22;7950;42.744;23.174;2023-08-01T02:17:33;17.40;99.90
15700;DHT22;7950;42.744;23.174;2023-08-01T02:20:02;17.30;99.90
15700;DHT22;7950;42.744;23.174;2023-08-01T02:22:31;17.30;99.90
15700;DHT22;7950;42.744;23.174;2023-08-01T02:25:00;17.40;99.90
15700;DHT22;7950;42.744;23.174;2023-08-01T02:27:29;17.40;99.90
15700;DHT22;7950;42.744;23.174;2023-08-01T02:29:57;17.40;99.90
15700;DHT22;7950;42.744;23.174;2023-08-01T02:32:26;17.30;99.90
15700;DHT22;7950;42.744;23.174;2023-08-01T02:34:57;17.30;99.90
15700;DHT22;7950;42.744;23.174;2023-08-01T02:37:25;17.30;99.90
15700;DHT22;7950;42.744;23.174;2023-08-01T02:39:54;17.30;99.90
15700;DHT22;7950;42.744;23.174;2023-08-01T02:42:24;17.40;99.90
15700;DHT22;7950;42.744;23.174;2023-08-01T02:44:52;17.30;99.90
15700;DHT22;7950;42.744;23.174;2023-08-01T02:47:21;17.20;99.90
15700;DHT22;7950;42.744;23.174;2023-08-01T02:49:49;17.10;99.90
15700;DHT22;7950;42.744;23.174;2023-08-01T02:52:17;17.00;99.90
15700;DHT22;7950;42.744;23.174;2023-08-01T02:54:46;17.00;99.90
15700;DHT22;7950;42.744;23.174;2023-08-01T02:57:15;16.80;99.90
15700;DHT22;7950;42.744;23.174;2023-08-01T02:59:45;16.70;99.90
15700;DHT22;7950;42.744;23.174;2023-08-01T03:02:14;16.70;99.90
15700;DHT22;7950;42.744;23.174;2023-08-01T03:04:42;16.60;99.90
15700;DHT22;7950;42.744;23.174;2023-08-01T03:07:13;16.60;99.90
15700;DHT22;7950;42.744;23.174;2023-08-01T03:09:41;16.50;99.90
15700;DHT22;7950;42.744;23.174;2023-08-01T03:12:10;16.50;99.90
15700;DHT22;7950;42.744;23.174;2023-08-01T03:14:39;16.50;99.90
15700;DHT22;7950;42.744;23.174;2023-08-01T03:17:09;16.50;99.90
15700;DHT22;7950;42.744;23.174;2023-08-01T03:19:38;16.40;99.90
15700;DHT22;7950;42.744;23.174;2023-08-01T03:22:07;16.40;99.90
15700;DHT22;7950;42.744;23.174;2023-08-01T03:24:36;16.40;99.90
15700;DHT22;7950;42.744;23.174;2023-08-01T03:27:04;16.30;99.90
15700;DHT22;7950;42.744;23.174;2023-08-01T03:29:33;16.30;99.90
15700;DHT22;7950;42.744;23.174;2023-08-01T03:32:02;16.30;99.90
15700;DHT22;7950;42.744;23.174;2023-08-01T03:34:33;16.20;99.90
15700;DHT22;7950;42.744;23.174;2023-08-01T03:37:02;16.10;99.90
15700;DHT22;7950;42.744;23.174;2023-08-01T03:39:31;16.10;99.90
15700;DHT22;7950;42.744;23.174;2023-08-01T03:41:59;16.10;99.90
15700;DHT22;7950;42.744;23.174;2023-08-01T03:44:28;16.10;99.90
15700;DHT22;7950;42.744;23.174;2023-08-01T03:46:56;16.10;99.90
15700;DHT22;7950;42.744;23.174;2023-08-01T03:49:24;16.10;99.90
15700;DHT22;7950;42.744;23.174;2023-08-01T03:51:54;16.20;99.90
15700;DHT22;7950;42.744;23.174;2023-08-01T03:54:26;16.20;99.90
15700;DHT22;7950;42.744;23.174;2023-08-01T03:56:55;16.20;99.90
15700;DHT22;7950;42.744;23.174;2023-08-01T03:59:23;16.20;99.90
15700;DHT22;7950;42.744;23.174;2023-08-01T04:01:53;16.40;99.90
15700;DHT22;7950;42.744;23.174;2023-08-01T04:04:21;16.50;99.90
15700;DHT22;7950;42.744;23.174;2023-08-01T04:06:50;16.60;99.90
15700;DHT22;7950;42.744;23.174;2023-08-01T04:09:19;16.70;99.90
15700;DHT22;7950;42.744;23.174;2023-08-01T04:11:48;16.70;99.90
15700;DHT22;7950;42.744;23.174;2023-08-01T04:14:16;16.80;99.90
15700;DHT22;7950;42.744;23.174;2023-08-01T04:16:45;16.90;99.90
15700;DHT22;7950;42.744;23.174;2023-08-01T04:19:13;17.00;99.90
15700;DHT22;7950;42.744;23.174;2023-08-01T04:21:44;17.10;99.90
15700;DHT22;7950;42.744;23.174;2023-08-01T04:24:13;17.20;99.90
15700;DHT22;7950;42.744;23.174;2023-08-01T04:26:43;17.30;99.90
15700;DHT22;7950;42.744;23.174;2023-08-01T04:29:11;17.40;99.90
15700;DHT22;7950;42.744;23.174;2023-08-01T04:31:42;17.50;99.90
15700;DHT22;7950;42.744;23.174;2023-08-01T04:34:11;17.60;99.90
15700;DHT22;7950;42.744;23.174;2023-08-01T04:36:39;17.70;99.90
15700;DHT22;7950;42.744;23.174;2023-08-01T04:39:08;17.90;99.90
15700;DHT22;7950;42.744;23.174;2023-08-01T04:41:37;18.00;99.90
15700;DHT22;7950;42.744;23.174;2023-08-01T04:44:07;18.10;99.90
15700;DHT22;7950;42.744;23.174;2023-08-01T04:46:35;18.20;99.90
15700;DHT22;7950;42.744;23.174;2023-08-01T04:49:04;18.30;99.90
15700;DHT22;7950;42.744;23.174;2023-08-01T04:51:32;18.50;99.90
15700;DHT22;7950;42.744;23.174;2023-08-01T04:54:01;18.60;99.90
15700;DHT22;7950;42.744;23.174;2023-08-01T04:56:29;18.70;99.90
15700;DHT22;7950;42.744;23.174;2023-08-01T04:58:58;18.80;99.90
15700;DHT22;7950;42.744;23.174;2023-08-01T05:01:30;19.00;99.90
15700;DHT22;7950;42.744;23.174;2023-08-01T05:03:58;19.10;99.90
15700;DHT22;7950;42.744;23.174;2023-08-01T05:06:27;19.20;99.90
15700;DHT22;7950;42.744;23.174;2023-08-01T05:08:56;19.30;99.90
15700;DHT22;7950;42.744;23.174;2023-08-01T05:11:24;19.40;99.90
15700;DHT22;7950;42.744;23.174;2023-08-01T05:13:53;19.60;99.90
15700;DHT22;7950;42.744;23.174;2023-08-01T05:16:21;19.70;99.90
15700;DHT22;7950;42.744;23.174;2023-08-01T05:18:51;19.80;99.90
15700;DHT22;7950;42.744;23.174;2023-08-01T05:21:19;19.90;99.90
15700;DHT22;7950;42.744;23.174;2023-08-01T05:23:48;20.00;99.90
15700;DHT22;7950;42.744;23.174;2023-08-01T05:26:17;20.10;99.90
15700;DHT22;7950;42.744;23.174;2023-08-01T05:28:45;20.20;99.90
15700;DHT22;7950;42.744;23.174;2023-08-01T05:31:14;20.30;99.90
15700;DHT22;7950;42.744;23.174;2023-08-01T05:33:42;20.50;99.90
15700;DHT22;7950;42.744;23.174;2023-08-01T05:36:12;20.50;99.90
15700;DHT22;7950;42.744;23.174;2023-08-01T05:38:41;20.70;99.90
15700;DHT22;7950;42.744;23.174;2023-08-01T05:41:09;20.70;99.90
15700;DHT22;7950;42.744;23.174;2023-08-01T05:43:38;20.80;99.90
15700;DHT22;7950;42.744;23.174;2023-08-01T05:46:06;20.90;99.90
15700;DHT22;7950;42.744;23.174;2023-08-01T05:48:35;21.10;99.90
15700;DHT22;7950;42.744;23.174;2023-08-01T05:51:03;21.20;99.90
15700;DHT22;7950;42.744;23.174;2023-08-01T05:53:33;21.30;99.90
15700;DHT22;7950;42.744;23.174;2023-08-01T05:56:02;21.50;99.90
15700;DHT22;7950;42.744;23.174;2023-08-01T05:58:31;21.70;99.90
15700;DHT22;7950;42.744;23.174;2023-08-01T06:01:00;21.80;99.90
15700;DHT22;7950;42.744;23.174;2023-08-01T06:03:28;22.00;99.90
15700;DHT22;7950;42.744;23.174;2023-08-01T06:05:57;22.10;99.90
15700;DHT22;7950;42.744;23.174;2023-08-01T06:08:26;22.30;99.90
15700;DHT22;7950;42.744;23.174;2023-08-01T06:10:56;22.40;99.90
15700;DHT22;7950;42.744;23.174;2023-08-01T06:13:25;22.60;99.90
15700;DHT22;7950;42.744;23.174;2023-08-01T06:15:54;22.80;99.90
15700;DHT22;7950;42.744;23.174;2023-08-01T06:18:22;22.90;99.90
15700;DHT22;7950;42.744;23.174;2023-08-01T06:20:51;23.00;99.90
15700;DHT22;7950;42.744;23.174;2023-08-01T06:23:19;23.10;99.90
15700;DHT22;7950;42.744;23.174;2023-08-01T06:25:48;23.20;99.90
15700;DHT22;7950;42.744;23.174;2023-08-01T06:28:18;23.30;99.90
15700;DHT22;7950;42.744;23.174;2023-08-01T06:30:46;23.60;99.90
15700;DHT22;7950;42.744;23.174;2023-08-01T06:33:15;23.70;97.20
15700;DHT22;7950;42.744;23.174;2023-08-01T06:35:43;23.80;97.30
15700;DHT22;7950;42.744;23.174;2023-08-01T06:38:12;23.90;96.50
15700;DHT22;7950;42.744;23.174;2023-08-01T06:40:41;24.00;95.00
15700;DHT22;7950;42.744;23.174;2023-08-01T06:43:09;24.10;95.70
15700;DHT22;7950;42.744;23.174;2023-08-01T06:45:39;24.20;95.10
15700;DHT22;7950;42.744;23.174;2023-08-01T06:48:07;24.30;93.00
15700;DHT22;7950;42.744;23.174;2023-08-01T06:50:36;24.40;91.80
15700;DHT22;7950;42.744;23.174;2023-08-01T06:53:05;24.50;90.00
15700;DHT22;7950;42.744;23.174;2023-08-01T06:55:33;24.60;89.10
15700;DHT22;7950;42.744;23.174;2023-08-01T06:58:02;24.70;90.30
15700;DHT22;7950;42.744;23.174;2023-08-01T07:00:30;24.80;89.50
15700;DHT22;7950;42.744;23.174;2023-08-01T07:03:00;24.90;87.60
15700;DHT22;7950;42.744;23.174;2023-08-01T07:05:29;25.00;89.40
15700;DHT22;7950;42.744;23.174;2023-08-01T07:07:57;25.10;87.20
15700;DHT22;7950;42.744;23.174;2023-08-01T07:10:26;25.20;85.60
15700;DHT22;7950;42.744;23.174;2023-08-01T07:12:54;25.30;84.70
15700;DHT22;7950;42.744;23.174;2023-08-01T07:15:23;25.30;83.80
15700;DHT22;7950;42.744;23.174;2023-08-01T07:17:51;25.30;82.90
15700;DHT22;7950;42.744;23.174;2023-08-01T07:20:22;25.30;84.90
15700;DHT22;7950;42.744;23.174;2023-08-01T07:22:50;25.50;84.30
15700;DHT22;7950;42.744;23.174;2023-08-01T07:25:19;25.70;82.20
15700;DHT22;7950;42.744;23.174;2023-08-01T07:27:49;25.80;79.90
15700;DHT22;7950;42.744;23.174;2023-08-01T07:30:18;25.90;80.20
15700;DHT22;7950;42.744;23.174;2023-08-01T07:32:46;25.90;78.50
15700;DHT22;7950;42.744;23.174;2023-08-01T07:35:15;25.90;79.70
15700;DHT22;7950;42.744;23.174;2023-08-01T07:37:45;26.10;78.30
15700;DHT22;7950;42.744;23.174;2023-08-01T07:40:13;26.20;76.40
15700;DHT22;7950;42.744;23.174;2023-08-01T07:42:42;26.20;76.30
15700;DHT22;7950;42.744;23.174;2023-08-01T07:45:10;26.20;77.00
15700;DHT22;7950;42.744;23.174;2023-08-01T07:47:39;26.30;79.30
15700;DHT22;7950;42.744;23.174;2023-08-01T07:50:08;26.40;77.70
15700;DHT22;7950;42.744;23.174;2023-08-01T07:52:37;26.50;76.20
15700;DHT22;7950;42.744;23.174;2023-08-01T07:55:07;26.60;75.90
15700;DHT22;7950;42.744;23.174;2023-08-01T07:57:36;26.80;73.50
15700;DHT22;7950;42.744;23.174;2023-08-01T08:00:06;26.70;74.30
15700;DHT22;7950;42.744;23.174;2023-08-01T08:02:36;26.80;73.80
15700;DHT22;7950;42.744;23.174;2023-08-01T08:05:05;26.90;75.00
15700;DHT22;7950;42.744;23.174;2023-08-01T08:07:34;27.00;73.40
15700;DHT22;7950;42.744;23.174;2023-08-01T08:10:05;27.00;73.70
15700;DHT22;7950;42.744;23.174;2023-08-01T08:12:36;27.20;72.90
15700;DHT22;7950;42.744;23.174;2023-08-01T08:15:05;27.20;71.20
15700;DHT22;7950;42.744;23.174;2023-08-01T08:17:34;27.20;71.90
15700;DHT22;7950;42.744;23.174;2023-08-01T08:20:04;27.20;70.00
15700;DHT22;7950;42.744;23.174;2023-08-01T08:22:33;27.30;70.40
15700;DHT22;7950;42.744;23.174;2023-08-01T08:25:01;27.40;69.60
15700;DHT22;7950;42.744;23.174;2023-08-01T08:27:31;27.40;71.80
15700;DHT22;7950;42.744;23.174;2023-08-01T08:30:00;27.50;71.80
15700;DHT22;7950;42.744;23.174;2023-08-01T08:32:28;27.70;71.10
15700;DHT22;7950;42.744;23.174;2023-08-01T08:34:57;27.80;70.50
15700;DHT22;7950;42.744;23.174;2023-08-01T08:37:26;27.90;70.30
15700;DHT22;7950;42.744;23.174;2023-08-01T08:39:54;27.90;67.60
15700;DHT22;7950;42.744;23.174;2023-08-01T08:42:23;27.90;67.80
15700;DHT22;7950;42.744;23.174;2023-08-01T08:44:55;27.80;67.60
15700;DHT22;7950;42.744;23.174;2023-08-01T08:47:28;27.70;67.00
15700;DHT22;7950;42.744;23.174;2023-08-01T08:49:59;27.60;67.90
15700;DHT22;7950;42.744;23.174;2023-08-01T08:52:27;27.40;69.00
15700;DHT22;7950;42.744;23.174;2023-08-01T08:54:56;27.30;69.60
15700;DHT22;7950;42.744;23.174;2023-08-01T08:57:27;27.30;67.80
15700;DHT22;7950;42.744;23.174;2023-08-01T08:59:58;27.20;69.60
15700;DHT22;7950;42.744;23.174;2023-08-01T09:02:28;27.40;69.90
15700;DHT22;7950;42.744;23.174;2023-08-01T09:04:57;27.40;70.10
15700;DHT22;7950;42.744;23.174;2023-08-01T09:07:29;27.40;69.20
15700;DHT22;7950;42.744;23.174;2023-08-01T09:10:01;27.50;69.20
15700;DHT22;7950;42.744;23.174;2023-08-01T09:12:34;27.50;68.20
15700;DHT22;7950;42.744;23.174;2023-08-01T09:15:05;27.40;68.20
15700;DHT22;7950;42.744;23.174;2023-08-01T09:17:35;27.60;67.20
15700;DHT22;7950;42.744;23.174;2023-08-01T09:20:04;27.60;66.90
15700;DHT22;7950;42.744;23.174;2023-08-01T09:22:42;27.60;67.80
15700;DHT22;7950;42.744;23.174;2023-08-01T09:25:11;27.70;68.40
15700;DHT22;7950;42.744;23.174;2023-08-01T09:27:41;27.80;70.80
15700;DHT22;7950;42.744;23.174;2023-08-01T09:30:12;28.00;68.10
15700;DHT22;7950;42.744;23.174;2023-08-01T09:32:51;28.20;66.70
15700;DHT22;7950;42.744;23.174;2023-08-01T09:35:20;28.40;66.90
15700;DHT22;7950;42.744;23.174;2023-08-01T09:37:49;28.60;64.60
15700;DHT22;7950;42.744;23.174;2023-08-01T09:40:19;28.80;65.70
15700;DHT22;7950;42.744;23.174;2023-08-01T09:42:48;29.10;64.60
15700;DHT22;7950;42.744;23.174;2023-08-01T09:45:18;29.20;66.50
15700;DHT22;7950;42.744;23.174;2023-08-01T09:47:47;29.30;63.90
15700;DHT22;7950;42.744;23.174;2023-08-01T09:50:20;29.40;62.40
15700;DHT22;7950;42.744;23.174;2023-08-01T09:52:50;29.50;63.00
15700;DHT22;7950;42.744;23.174;2023-08-01T09:55:26;29.40;61.50
15700;DHT22;7950;42.744;23.174;2023-08-01T09:57:59;29.30;61.00
15700;DHT22;7950;42.744;23.174;2023-08-01T10:00:30;29.20;62.10
15700;DHT22;7950;42.744;23.174;2023-08-01T10:03:00;29.30;62.50
15700;DHT22;7950;42.744;23.174;2023-08-01T10:05:30;29.40;61.20
15700;DHT22;7950;42.744;23.174;2023-08-01T10:08:01;29.40;60.40
15700;DHT22;7950;42.744;23.174;2023-08-01T10:10:30;29.50;60.30
15700;DHT22;7950;42.744;23.174;2023-08-01T10:13:01;29.60;58.90
15700;DHT22;7950;42.744;23.174;2023-08-01T10:15:31;29.60;59.50
15700;DHT22;7950;42.744;23.174;2023-08-01T10:18:01;29.60;59.80
15700;DHT22;7950;42.744;23.174;2023-08-01T10:20:33;29.70;58.80
15700;DHT22;7950;42.744;23.174;2023-08-01T10:23:03;29.60;57.00
15700;DHT22;7950;42.744;23.174;2023-08-01T10:25:33;29.40;57.70
15700;DHT22;7950;42.744;23.174;2023-08-01T10:28:02;29.20;58.50
15700;DHT22;7950;42.744;23.174;2023-08-01T10:30:33;29.00;58.30
15700;DHT22;7950;42.744;23.174;2023-08-01T10:33:01;29.00;60.20
15700;DHT22;7950;42.744;23.174;2023-08-01T10:35:34;29.10;58.70
15700;DHT22;7950;42.744;23.174;2023-08-01T10:38:05;29.30;57.20
15700;DHT22;7950;42.744;23.174;2023-08-01T10:40:36;29.40;55.20
15700;DHT22;7950;42.744;23.174;2023-08-01T10:43:06;29.60;54.90
15700;DHT22;7950;42.744;23.174;2023-08-01T10:45:36;29.80;55.90
15700;DHT22;7950;42.744;23.174;2023-08-01T10:48:08;29.70;52.90
15700;DHT22;7950;42.744;23.174;2023-08-01T10:50:38;29.70;53.30
15700;DHT22;7950;42.744;23.174;2023-08-01T10:53:08;29.60;53.80
15700;DHT22;7950;42.744;23.174;2023-08-01T10:55:41;29.50;53.30
15700;DHT22;7950;42.744;23.174;2023-08-01T10:58:12;29.60;53.00
15700;DHT22;7950;42.744;23.174;2023-08-01T11:00:43;29.70;53.50
15700;DHT22;7950;42.744;23.174;2023-08-01T11:03:11;29.70;52.70
15700;DHT22;7950;42.744;23.174;2023-08-01T11:05:40;29.70;52.90
15700;DHT22;7950;42.744;23.174;2023-08-01T11:08:08;29.70;53.20
15700;DHT22;7950;42.744;23.174;2023-08-01T11:10:38;29.70;54.20
15700;DHT22;7950;42.744;23.174;2023-08-01T11:13:10;29.80;52.20
15700;DHT22;7950;42.744;23.174;2023-08-01T11:15:39;29.90;52.30
15700;DHT22;7950;42.744;23.174;2023-08-01T11:18:09;30.10;52.20
15700;DHT22;7950;42.744;23.174;2023-08-01T11:20:38;30.30;52.30
15700;DHT22;7950;42.744;23.174;2023-08-01T11:23:08;30.50;51.80
15700;DHT22;7950;42.744;23.174;2023-08-01T11:25:40;30.60;52.00
15700;DHT22;7950;42.744;23.174;2023-08-01T11:28:11;30.60;50.70
15700;DHT22;7950;42.744;23.174;2023-08-01T11:30:42;30.70;49.30
15700;DHT22;7950;42.744;23.174;2023-08-01T11:33:18;30.70;48.30
15700;DHT22;7950;42.744;23.174;2023-08-01T11:35:50;30.60;44.80
15700;DHT22;7950;42.744;23.174;2023-08-01T11:38:21;30.50;46.00
15700;DHT22;7950;42.744;23.174;2023-08-01T11:40:52;30.50;45.50
15700;DHT22;7950;42.744;23.174;2023-08-01T11:43:21;30.50;44.40
15700;DHT22;7950;42.744;23.174;2023-08-01T11:45:50;30.50;42.50
15700;DHT22;7950;42.744;23.174;2023-08-01T11:48:23;30.40;42.80
15700;DHT22;7950;42.744;23.174;2023-08-01T11:50:56;30.40;43.40
15700;DHT22;7950;42.744;23.174;2023-08-01T11:53:26;30.50;43.80
15700;DHT22;7950;42.744;23.174;2023-08-01T11:55:56;30.60;43.30
15700;DHT22;7950;42.744;23.174;2023-08-01T11:58:28;30.70;44.50
15700;DHT22;7950;42.744;23.174;2023-08-01T12:01:04;30.80;42.50
15700;DHT22;7950;42.744;23.174;2023-08-01T12:03:44;31.00;43.20
15700;DHT22;7950;42.744;23.174;2023-08-01T12:06:14;31.10;42.60
15700;DHT22;7950;42.744;23.174;2023-08-01T12:08:44;31.20;42.80
15700;DHT22;7950;42.744;23.174;2023-08-01T12:11:20;31.30;42.00
15700;DHT22;7950;42.744;23.174;2023-08-01T12:14:04;31.50;41.40
15700;DHT22;7950;42.744;23.174;2023-08-01T12:16:37;31.30;41.20
15700;DHT22;7950;42.744;23.174;2023-08-01T12:19:09;31.20;40.90
15700;DHT22;7950;42.744;23.174;2023-08-01T12:21:37;31.10;40.90
15700;DHT22;7950;42.744;23.174;2023-08-01T12:24:06;31.20;40.20
15700;DHT22;7950;42.744;23.174;2023-08-01T12:26:34;31.10;39.50
15700;DHT22;7950;42.744;23.174;2023-08-01T12:29:03;30.90;41.30
15700;DHT22;7950;42.744;23.174;2023-08-01T12:31:32;30.90;40.30
15700;DHT22;7950;42.744;23.174;2023-08-01T12:34:00;30.80;40.80
15700;DHT22;7950;42.744;23.174;2023-08-01T12:36:31;31.00;41.50
15700;DHT22;7950;42.744;23.174;2023-08-01T12:38:59;31.00;38.70
15700;DHT22;7950;42.744;23.174;2023-08-01T12:41:28;31.00;39.60
15700;DHT22;7950;42.744;23.174;2023-08-01T12:43:56;31.00;40.60
15700;DHT22;7950;42.744;23.174;2023-08-01T12:46:25;31.10;40.60
15700;DHT22;7950;42.744;23.174;2023-08-01T12:48:55;31.20;42.80
15700;DHT22;7950;42.744;23.174;2023-08-01T12:51:23;31.50;41.60
15700;DHT22;7950;42.744;23.174;2023-08-01T12:53:53;31.50;40.90
15700;DHT22;7950;42.744;23.174;2023-08-01T12:56:22;31.60;41.30
15700;DHT22;7950;42.744;23.174;2023-08-01T12:58:50;31.70;41.10
15700;DHT22;7950;42.744;23.174;2023-08-01T13:01:19;31.60;42.10
15700;DHT22;7950;42.744;23.174;2023-08-01T13:03:47;31.40;42.20
15700;DHT22;7950;42.744;23.174;2023-08-01T13:06:16;31.30;42.80
15700;DHT22;7950;42.744;23.174;2023-08-01T13:08:44;31.20;42.80
15700;DHT22;7950;42.744;23.174;2023-08-01T13:11:14;31.20;41.90
15700;DHT22;7950;42.744;23.174;2023-08-01T13:13:44;31.20;42.10
15700;DHT22;7950;42.744;23.174;2023-08-01T13:16:12;31.20;43.30
15700;DHT22;7950;42.744;23.174;2023-08-01T13:18:41;31.20;44.00
15700;DHT22;7950;42.744;23.174;2023-08-01T13:21:13;31.30;44.50
15700;DHT22;7950;42.744;23.174;2023-08-01T13:23:41;31.40;43.90
15700;DHT22;7950;42.744;23.174;2023-08-01T13:26:10;31.50;44.70
15700;DHT22;7950;42.744;23.174;2023-08-01T13:28:40;31.70;43.50
15700;DHT22;7950;42.744;23.174;2023-08-01T13:31:08;31.70;43.30
15700;DHT22;7950;42.744;23.174;2023-08-01T13:33:37;31.70;42.70
15700;DHT22;7950;42.744;23.174;2023-08-01T13:36:06;31.50;41.90
15700;DHT22;7950;42.744;23.174;2023-08-01T13:38:34;31.40;43.40
15700;DHT22;7950;42.744;23.174;2023-08-01T13:41:03;31.30;43.30
15700;DHT22;7950;42.744;23.174;2023-08-01T13:43:31;31.30;43.30
15700;DHT22;7950;42.744;23.174;2023-08-01T13:46:07;31.30;42.40
15700;DHT22;7950;42.744;23.174;2023-08-01T13:48:55;31.30;41.70
15700;DHT22;7950;42.744;23.174;2023-08-01T13:51:23;31.40;42.50
15700;DHT22;7950;42.744;23.174;2023-08-01T13:53:52;31.50;43.50
15700;DHT22;7950;42.744;23.174;2023-08-01T13:56:22;31.40;41.60
15700;DHT22;7950;42.744;23.174;2023-08-01T13:58:50;31.40;42.60
15700;DHT22;7950;42.744;23.174;2023-08-01T14:01:21;31.30;42.50
15700;DHT22;7950;42.744;23.174;2023-08-01T14:03:50;31.20;42.40
15700;DHT22;7950;42.744;23.174;2023-08-01T14:06:18;31.20;43.50
15700;DHT22;7950;42.744;23.174;2023-08-01T14:08:47;31.20;43.20
15700;DHT22;7950;42.744;23.174;2023-08-01T14:11:16;31.10;43.50
15700;DHT22;7950;42.744;23.174;2023-08-01T14:13:45;31.10;43.00
15700;DHT22;7950;42.744;23.174;2023-08-01T14:16:13;31.10;42.90
15700;DHT22;7950;42.744;23.174;2023-08-01T14:18:44;31.10;43.40
15700;DHT22;7950;42.744;23.174;2023-08-01T14:21:13;31.20;44.10
15700;DHT22;7950;42.744;23.174;2023-08-01T14:23:42;31.20;43.50
15700;DHT22;7950;42.744;23.174;2023-08-01T14:26:10;31.20;43.10
15700;DHT22;7950;42.744;23.174;2023-08-01T14:28:39;31.20;43.40
15700;DHT22;7950;42.744;23.174;2023-08-01T14:31:07;31.20;43.50
15700;DHT22;7950;42.744;23.174;2023-08-01T14:33:36;31.00;43.10
15700;DHT22;7950;42.744;23.174;2023-08-01T14:36:08;30.80;43.20
15700;DHT22;7950;42.744;23.174;2023-08-01T14:38:39;30.50;43.50
15700;DHT22;7950;42.744;23.174;2023-08-01T14:41:08;30.30;43.80
15700;DHT22;7950;42.744;23.174;2023-08-01T14:43:56;30.20;44.80
15700;DHT22;7950;42.744;23.174;2023-08-01T14:46:24;30.10;45.70
15700;DHT22;7950;42.744;23.174;2023-08-01T14:48:53;30.10;45.40
15700;DHT22;7950;42.744;23.174;2023-08-01T14:51:23;30.30;45.60
15700;DHT22;7950;42.744;23.174;2023-08-01T14:53:51;30.50;44.60
15700;DHT22;7950;42.744;23.174;2023-08-01T14:56:20;30.60;45.10
15700;DHT22;7950;42.744;23.174;2023-08-01T14:58:48;30.60;45.10
15700;DHT22;7950;42.744;23.174;2023-08-01T15:01:17;30.70;45.20
15700;DHT22;7950;42.744;23.174;2023-08-01T15:03:46;30.80;44.00
15700;DHT22;7950;42.744;23.174;2023-08-01T15:06:14;30.60;43.90
15700;DHT22;7950;42.744;23.174;2023-08-01T15:08:44;30.40;44.00
15700;DHT22;7950;42.744;23.174;2023-08-01T15:11:13;30.50;44.50
15700;DHT22;7950;42.744;23.174;2023-08-01T15:13:41;30.60;45.10
15700;DHT22;7950;42.744;23.174;2023-08-01T15:16:10;30.70;45.10
15700;DHT22;7950;42.744;23.174;2023-08-01T15:18:40;30.80;44.20
15700;DHT22;7950;42.744;23.174;2023-08-01T15:21:09;30.60;44.20
15700;DHT22;7950;42.744;23.174;2023-08-01T15:23:37;30.60;45.10
15700;DHT22;7950;42.744;23.174;2023-08-01T15:26:07;30.60;43.70
15700;DHT22;7950;42.744;23.174;2023-08-01T15:28:36;30.70;45.50
15700;DHT22;7950;42.744;23.174;2023-08-01T15:31:05;30.90;45.20
15700;DHT22;7950;42.744;23.174;2023-08-01T15:33:36;31.00;43.00
15700;DHT22;7950;42.744;23.174;2023-08-01T15:36:07;31.10;42.90
15700;DHT22;7950;42.744;23.174;2023-08-01T15:38:37;31.10;43.10
15700;DHT22;7950;42.744;23.174;2023-08-01T15:41:08;31.20;44.10
15700;DHT22;7950;42.744;23.174;2023-08-01T15:43:37;31.20;43.30